Montney, Canada
Current Conditions -  °F | °C
As of 5:00 PM on Friday 28 Nov 2014 (Local Time) from CYXJ Reporting Station
Few Clouds Few Clouds  
Wind Chill: -23°   Ceiling: Unl
Heat Index: -11°   Visibility: 15mi
Dew Point: -18°   Wind: 5mph
Humidity: 70%   Direction: 260°W
Pressure: 30.03"   Gusts: NA
Location:  56.45°N, 120.92°W
Report Text: CYXJ 290000Z 26004KT 15SM FEW220 M24/M28 A3003 RMK CI2 SLP247
Loading
Personal Weather Stations






























Interactive Weather Map New forecast layout! Learn more

10-Day Weather Forecast

Advertisements
Track Severe Weather on mobile